sensor_id;sensor_type;location;lat;lon;timestamp;pressure;altitude;pressure_sealevel;temperature;humidity
35507;BME280;36461;52.018;21.036;2022-12-17T00:00:49;100302.95;;;-2.18;93.05
35507;BME280;36461;52.018;21.036;2022-12-17T00:03:34;100311.38;;;-2.21;92.54
35507;BME280;36461;52.018;21.036;2022-12-17T00:06:20;100316.88;;;-2.23;92.65
35507;BME280;36461;52.018;21.036;2022-12-17T00:09:06;100318.04;;;-2.27;92.75
35507;BME280;36461;52.018;21.036;2022-12-17T00:11:51;100326.91;;;-2.29;92.59
35507;BME280;36461;52.018;21.036;2022-12-17T00:14:36;100335.81;;;-2.29;92.74
35507;BME280;36461;52.018;21.036;2022-12-17T00:17:21;100326.55;;;-2.27;92.95
35507;BME280;36461;52.018;21.036;2022-12-17T00:20:07;100340.95;;;-2.26;92.92
35507;BME280;36461;52.018;21.036;2022-12-17T00:22:59;100343.97;;;-2.23;93.19
35507;BME280;36461;52.018;21.036;2022-12-17T00:25:50;100348.23;;;-2.22;93.00
35507;BME280;36461;52.018;21.036;2022-12-17T00:28:35;100346.53;;;-2.22;92.86
35507;BME280;36461;52.018;21.036;2022-12-17T00:31:21;100346.53;;;-2.22;93.04
35507;BME280;36461;52.018;21.036;2022-12-17T00:34:06;100351.59;;;-2.23;92.73
35507;BME280;36461;52.018;21.036;2022-12-17T00:36:38;100357.93;;;-2.25;92.81
35507;BME280;36461;52.018;21.036;2022-12-17T00:39:23;100360.47;;;-2.25;92.88
35507;BME280;36461;52.018;21.036;2022-12-17T00:42:08;100360.89;;;-2.25;92.75
35507;BME280;36461;52.018;21.036;2022-12-17T00:44:52;100348.93;;;-2.31;92.13
35507;BME280;36461;52.018;21.036;2022-12-17T00:47:38;100346.30;;;-2.34;92.54
35507;BME280;36461;52.018;21.036;2022-12-17T00:50:23;100354.41;;;-2.31;92.58
35507;BME280;36461;52.018;21.036;2022-12-17T00:53:08;100347.66;;;-2.31;92.54
35507;BME280;36461;52.018;21.036;2022-12-17T00:55:55;100347.26;;;-2.29;92.67
35507;BME280;36461;52.018;21.036;2022-12-17T00:58:40;100345.51;;;-2.31;92.63
35507;BME280;36461;52.018;21.036;2022-12-17T01:01:26;100345.03;;;-2.34;92.54
35507;BME280;36461;52.018;21.036;2022-12-17T01:04:11;100345.98;;;-2.29;93.15
35507;BME280;36461;52.018;21.036;2022-12-17T01:06:57;100342.22;;;-2.26;93.04
35507;BME280;36461;52.018;21.036;2022-12-17T01:09:43;100346.91;;;-2.25;92.71
35507;BME280;36461;52.018;21.036;2022-12-17T01:12:28;100352.36;;;-2.27;92.81
35507;BME280;36461;52.018;21.036;2022-12-17T01:15:13;100351.89;;;-2.30;92.61
35507;BME280;36461;52.018;21.036;2022-12-17T01:17:58;100368.50;;;-2.27;92.90
35507;BME280;36461;52.018;21.036;2022-12-17T01:20:43;100366.01;;;-2.24;93.01
35507;BME280;36461;52.018;21.036;2022-12-17T01:23:29;100371.86;;;-2.28;92.53
35507;BME280;36461;52.018;21.036;2022-12-17T01:26:14;100375.22;;;-2.29;93.14
35507;BME280;36461;52.018;21.036;2022-12-17T01:28:59;100382.03;;;-2.28;92.80
35507;BME280;36461;52.018;21.036;2022-12-17T01:31:45;100386.64;;;-2.30;92.80
35507;BME280;36461;52.018;21.036;2022-12-17T01:34:30;100375.70;;;-2.26;93.00
35507;BME280;36461;52.018;21.036;2022-12-17T01:37:15;100371.46;;;-2.26;92.94
35507;BME280;36461;52.018;21.036;2022-12-17T01:40:00;100373.66;;;-2.22;93.02
35507;BME280;36461;52.018;21.036;2022-12-17T01:42:45;100369.05;;;-2.20;93.03
35507;BME280;36461;52.018;21.036;2022-12-17T01:45:34;100370.40;;;-2.15;93.12
35507;BME280;36461;52.018;21.036;2022-12-17T01:48:23;100370.80;;;-2.17;93.00
35507;BME280;36461;52.018;21.036;2022-12-17T01:51:11;100381.77;;;-2.20;92.85
35507;BME280;36461;52.018;21.036;2022-12-17T01:54:00;100389.39;;;-2.20;92.75
35507;BME280;36461;52.018;21.036;2022-12-17T01:56:46;100393.98;;;-2.24;92.50
35507;BME280;36461;52.018;21.036;2022-12-17T02:02:42;100396.52;;;-2.24;93.02
35507;BME280;36461;52.018;21.036;2022-12-17T02:05:41;100403.75;;;-2.22;92.83
35507;BME280;36461;52.018;21.036;2022-12-17T02:15:08;100398.27;;;-2.21;93.09
35507;BME280;36461;52.018;21.036;2022-12-17T02:17:59;100389.87;;;-2.17;93.00
35507;BME280;36461;52.018;21.036;2022-12-17T02:20:48;100389.03;;;-2.17;92.92
35507;BME280;36461;52.018;21.036;2022-12-17T02:27:01;100386.03;;;-2.18;92.76
35507;BME280;36461;52.018;21.036;2022-12-17T02:29:54;100393.27;;;-2.16;93.06
35507;BME280;36461;52.018;21.036;2022-12-17T02:32:44;100395.30;;;-2.21;92.77
35507;BME280;36461;52.018;21.036;2022-12-17T02:35:43;100392.68;;;-2.25;92.95
35507;BME280;36461;52.018;21.036;2022-12-17T02:38:31;100393.66;;;-2.18;92.77
35507;BME280;36461;52.018;21.036;2022-12-17T02:41:23;100399.88;;;-2.25;92.54
35507;BME280;36461;52.018;21.036;2022-12-17T02:44:11;100404.52;;;-2.26;92.58
35507;BME280;36461;52.018;21.036;2022-12-17T02:47:01;100398.77;;;-2.17;93.24
35507;BME280;36461;52.018;21.036;2022-12-17T02:49:48;100393.66;;;-2.18;92.56
35507;BME280;36461;52.018;21.036;2022-12-17T02:52:38;100394.91;;;-2.20;92.76
35507;BME280;36461;52.018;21.036;2022-12-17T02:55:26;100402.95;;;-2.19;92.64
35507;BME280;36461;52.018;21.036;2022-12-17T02:58:12;100401.16;;;-2.25;92.67
35507;BME280;36461;52.018;21.036;2022-12-17T03:00:59;100395.22;;;-2.25;92.36
35507;BME280;36461;52.018;21.036;2022-12-17T03:03:44;100398.66;;;-2.22;92.96
35507;BME280;36461;52.018;21.036;2022-12-17T03:06:29;100393.23;;;-2.18;92.98
35507;BME280;36461;52.018;21.036;2022-12-17T03:09:15;100400.50;;;-2.16;93.09
35507;BME280;36461;52.018;21.036;2022-12-17T03:12:00;100405.61;;;-2.14;93.04
35507;BME280;36461;52.018;21.036;2022-12-17T03:14:47;100408.52;;;-2.16;92.79
35507;BME280;36461;52.018;21.036;2022-12-17T03:17:33;100405.90;;;-2.21;92.82
35507;BME280;36461;52.018;21.036;2022-12-17T03:20:18;100406.41;;;-2.17;92.67
35507;BME280;36461;52.018;21.036;2022-12-17T03:23:07;100398.80;;;-2.15;92.74
35507;BME280;36461;52.018;21.036;2022-12-17T03:25:59;100387.67;;;-2.21;92.62
35507;BME280;36461;52.018;21.036;2022-12-17T03:28:45;100389.08;;;-2.14;92.78
35507;BME280;36461;52.018;21.036;2022-12-17T03:31:32;100388.55;;;-2.20;92.28
35507;BME280;36461;52.018;21.036;2022-12-17T03:34:17;100387.52;;;-2.28;92.19
35507;BME280;36461;52.018;21.036;2022-12-17T03:37:05;100387.17;;;-2.25;92.84
35507;BME280;36461;52.018;21.036;2022-12-17T03:39:51;100381.22;;;-2.27;92.45
35507;BME280;36461;52.018;21.036;2022-12-17T03:42:36;100382.42;;;-2.28;92.36
35507;BME280;36461;52.018;21.036;2022-12-17T03:45:22;100373.81;;;-2.35;92.19
35507;BME280;36461;52.018;21.036;2022-12-17T03:48:09;100374.24;;;-2.36;92.20
35507;BME280;36461;52.018;21.036;2022-12-17T03:50:57;100381.84;;;-2.37;92.18
35507;BME280;36461;52.018;21.036;2022-12-17T03:53:43;100382.66;;;-2.38;92.37
35507;BME280;36461;52.018;21.036;2022-12-17T03:56:30;100380.59;;;-2.36;92.56
35507;BME280;36461;52.018;21.036;2022-12-17T03:59:15;100374.58;;;-2.39;92.20
35507;BME280;36461;52.018;21.036;2022-12-17T04:02:01;100379.25;;;-2.40;92.32
35507;BME280;36461;52.018;21.036;2022-12-17T04:04:46;100388.06;;;-2.43;92.10
35507;BME280;36461;52.018;21.036;2022-12-17T04:07:31;100387.13;;;-2.48;92.08
35507;BME280;36461;52.018;21.036;2022-12-17T04:10:17;100387.67;;;-2.43;92.64
35507;BME280;36461;52.018;21.036;2022-12-17T04:13:03;100387.24;;;-2.42;92.54
35507;BME280;36461;52.018;21.036;2022-12-17T04:15:48;100395.30;;;-2.43;92.43
35507;BME280;36461;52.018;21.036;2022-12-17T04:18:33;100408.31;;;-2.48;92.59
35507;BME280;36461;52.018;21.036;2022-12-17T04:21:18;100422.27;;;-2.49;92.57
35507;BME280;36461;52.018;21.036;2022-12-17T04:24:04;100428.95;;;-2.53;92.55
35507;BME280;36461;52.018;21.036;2022-12-17T04:26:49;100442.15;;;-2.50;92.50
35507;BME280;36461;52.018;21.036;2022-12-17T04:29:34;100448.81;;;-2.56;92.27
35507;BME280;36461;52.018;21.036;2022-12-17T04:32:20;100449.56;;;-2.60;92.16
35507;BME280;36461;52.018;21.036;2022-12-17T04:35:06;100447.08;;;-2.57;92.54
35507;BME280;36461;52.018;21.036;2022-12-17T04:37:51;100452.59;;;-2.57;92.33
35507;BME280;36461;52.018;21.036;2022-12-17T04:40:36;100471.98;;;-2.61;92.11
35507;BME280;36461;52.018;21.036;2022-12-17T04:43:22;100476.55;;;-2.65;92.30
35507;BME280;36461;52.018;21.036;2022-12-17T04:46:07;100492.16;;;-2.68;91.87
35507;BME280;36461;52.018;21.036;2022-12-17T04:48:53;100501.51;;;-2.66;92.43
35507;BME280;36461;52.018;21.036;2022-12-17T04:51:38;100510.83;;;-2.66;92.11
35507;BME280;36461;52.018;21.036;2022-12-17T04:54:23;100518.39;;;-2.70;92.23
35507;BME280;36461;52.018;21.036;2022-12-17T04:57:08;100523.47;;;-2.70;92.13
35507;BME280;36461;52.018;21.036;2022-12-17T04:59:54;100519.98;;;-2.73;92.21
35507;BME280;36461;52.018;21.036;2022-12-17T05:02:40;100516.62;;;-2.72;91.99
35507;BME280;36461;52.018;21.036;2022-12-17T05:05:26;100521.22;;;-2.75;92.21
35507;BME280;36461;52.018;21.036;2022-12-17T05:08:11;100507.80;;;-2.69;92.41
35507;BME280;36461;52.018;21.036;2022-12-17T05:11:04;100505.32;;;-2.66;92.56
35507;BME280;36461;52.018;21.036;2022-12-17T05:13:50;100508.28;;;-2.66;92.50
35507;BME280;36461;52.018;21.036;2022-12-17T05:16:34;100506.69;;;-2.63;92.79
35507;BME280;36461;52.018;21.036;2022-12-17T05:19:20;100516.16;;;-2.56;92.93
35507;BME280;36461;52.018;21.036;2022-12-17T05:22:05;100520.91;;;-2.52;92.73
35507;BME280;36461;52.018;21.036;2022-12-17T05:24:50;100520.23;;;-2.62;92.08
35507;BME280;36461;52.018;21.036;2022-12-17T05:27:34;100513.49;;;-2.62;92.23
35507;BME280;36461;52.018;21.036;2022-12-17T05:30:19;100511.05;;;-2.57;92.57
35507;BME280;36461;52.018;21.036;2022-12-17T05:33:04;100514.02;;;-2.58;92.07
35507;BME280;36461;52.018;21.036;2022-12-17T05:35:49;100518.13;;;-2.63;92.01
35507;BME280;36461;52.018;21.036;2022-12-17T05:38:34;100518.84;;;-2.68;91.77
35507;BME280;36461;52.018;21.036;2022-12-17T05:41:21;100523.44;;;-2.71;91.75
35507;BME280;36461;52.018;21.036;2022-12-17T05:44:06;100521.31;;;-2.70;92.13
35507;BME280;36461;52.018;21.036;2022-12-17T05:46:51;100526.89;;;-2.67;92.21
35507;BME280;36461;52.018;21.036;2022-12-17T05:49:36;100525.23;;;-2.67;92.18
35507;BME280;36461;52.018;21.036;2022-12-17T05:52:22;100529.59;;;-2.61;92.45
35507;BME280;36461;52.018;21.036;2022-12-17T05:55:07;100524.77;;;-2.68;91.97
35507;BME280;36461;52.018;21.036;2022-12-17T05:58:04;100523.08;;;-2.67;92.26
35507;BME280;36461;52.018;21.036;2022-12-17T06:00:56;100531.67;;;-2.62;92.46
35507;BME280;36461;52.018;21.036;2022-12-17T06:03:43;100523.92;;;-2.68;91.98
35507;BME280;36461;52.018;21.036;2022-12-17T06:06:28;100534.97;;;-2.66;92.51
35507;BME280;36461;52.018;21.036;2022-12-17T06:09:13;100540.99;;;-2.63;92.54
35507;BME280;36461;52.018;21.036;2022-12-17T06:11:58;100533.34;;;-2.64;92.24
35507;BME280;36461;52.018;21.036;2022-12-17T06:14:44;100537.97;;;-2.65;92.04
35507;BME280;36461;52.018;21.036;2022-12-17T06:17:28;100542.89;;;-2.72;91.80
35507;BME280;36461;52.018;21.036;2022-12-17T06:20:15;100547.09;;;-2.74;91.74
35507;BME280;36461;52.018;21.036;2022-12-17T06:23:09;100551.39;;;-2.71;91.85
35507;BME280;36461;52.018;21.036;2022-12-17T06:25:56;100567.45;;;-2.72;92.05
35507;BME280;36461;52.018;21.036;2022-12-17T06:28:43;100568.81;;;-2.67;92.19
35507;BME280;36461;52.018;21.036;2022-12-17T06:31:28;100572.08;;;-2.73;92.00
35507;BME280;36461;52.018;21.036;2022-12-17T06:34:13;100589.27;;;-2.80;91.46
35507;BME280;36461;52.018;21.036;2022-12-17T06:36:58;100587.76;;;-2.90;91.37
35507;BME280;36461;52.018;21.036;2022-12-17T06:39:43;100590.34;;;-2.88;91.59
35507;BME280;36461;52.018;21.036;2022-12-17T06:42:29;100590.69;;;-2.90;91.63
35507;BME280;36461;52.018;21.036;2022-12-17T06:45:14;100592.42;;;-2.89;91.79
35507;BME280;36461;52.018;21.036;2022-12-17T06:48:04;100595.31;;;-2.93;91.43
35507;BME280;36461;52.018;21.036;2022-12-17T06:50:54;100605.86;;;-2.93;91.91
35507;BME280;36461;52.018;21.036;2022-12-17T06:53:40;100606.35;;;-2.91;92.25
35507;BME280;36461;52.018;21.036;2022-12-17T06:56:26;100611.44;;;-2.91;92.51
35507;BME280;36461;52.018;21.036;2022-12-17T06:59:11;100608.83;;;-2.94;92.24
35507;BME280;36461;52.018;21.036;2022-12-17T07:01:56;100610.09;;;-2.94;91.93
35507;BME280;36461;52.018;21.036;2022-12-17T07:04:42;100617.57;;;-2.98;91.85
35507;BME280;36461;52.018;21.036;2022-12-17T07:07:27;100614.96;;;-3.01;91.75
35507;BME280;36461;52.018;21.036;2022-12-17T07:10:14;100608.72;;;-2.97;92.49
35507;BME280;36461;52.018;21.036;2022-12-17T07:12:51;100616.52;;;-2.91;92.68
35507;BME280;36461;52.018;21.036;2022-12-17T07:15:36;100608.92;;;-2.89;92.38
35507;BME280;36461;52.018;21.036;2022-12-17T07:18:21;100602.05;;;-2.93;92.26
35507;BME280;36461;52.018;21.036;2022-12-17T07:21:06;100611.50;;;-2.88;92.43
35507;BME280;36461;52.018;21.036;2022-12-17T07:23:51;100610.73;;;-2.85;92.28
35507;BME280;36461;52.018;21.036;2022-12-17T07:26:36;100615.81;;;-2.85;92.06
35507;BME280;36461;52.018;21.036;2022-12-17T07:29:21;100628.23;;;-2.80;92.16
35507;BME280;36461;52.018;21.036;2022-12-17T07:32:06;100643.02;;;-2.81;91.83
35507;BME280;36461;52.018;21.036;2022-12-17T07:34:51;100644.73;;;-2.80;92.04
35507;BME280;36461;52.018;21.036;2022-12-17T07:37:37;100640.61;;;-2.76;92.19
35507;BME280;36461;52.018;21.036;2022-12-17T07:40:22;100640.64;;;-2.75;92.29
35507;BME280;36461;52.018;21.036;2022-12-17T07:43:16;100641.14;;;-2.72;92.04
35507;BME280;36461;52.018;21.036;2022-12-17T07:45:58;100650.06;;;-2.71;92.04
35507;BME280;36461;52.018;21.036;2022-12-17T07:48:43;100650.00;;;-2.74;91.37
35507;BME280;36461;52.018;21.036;2022-12-17T07:51:30;100660.83;;;-2.79;91.68
35507;BME280;36461;52.018;21.036;2022-12-17T07:54:15;100649.15;;;-2.73;92.00
35507;BME280;36461;52.018;21.036;2022-12-17T07:57:00;100650.98;;;-2.68;91.62
35507;BME280;36461;52.018;21.036;2022-12-17T07:59:45;100659.28;;;-2.74;92.78
35507;BME280;36461;52.018;21.036;2022-12-17T08:02:30;100661.33;;;-2.77;93.16
35507;BME280;36461;52.018;21.036;2022-12-17T08:05:16;100667.75;;;-2.75;93.66
35507;BME280;36461;52.018;21.036;2022-12-17T08:08:09;100666.02;;;-2.76;93.92
35507;BME280;36461;52.018;21.036;2022-12-17T08:10:55;100665.63;;;-2.74;94.42
35507;BME280;36461;52.018;21.036;2022-12-17T08:13:40;100660.27;;;-2.69;94.50
35507;BME280;36461;52.018;21.036;2022-12-17T08:16:26;100667.85;;;-2.71;93.80
35507;BME280;36461;52.018;21.036;2022-12-17T08:19:12;100667.29;;;-2.76;93.61
35507;BME280;36461;52.018;21.036;2022-12-17T08:21:57;100671.34;;;-2.83;92.90
35507;BME280;36461;52.018;21.036;2022-12-17T08:24:42;100683.09;;;-2.87;92.46
35507;BME280;36461;52.018;21.036;2022-12-17T08:27:28;100681.33;;;-2.89;93.03
35507;BME280;36461;52.018;21.036;2022-12-17T08:30:13;100694.91;;;-2.89;93.38
35507;BME280;36461;52.018;21.036;2022-12-17T08:33:04;100689.91;;;-2.85;93.01
35507;BME280;36461;52.018;21.036;2022-12-17T08:35:51;100702.15;;;-2.87;92.85
35507;BME280;36461;52.018;21.036;2022-12-17T08:38:37;100705.41;;;-2.76;93.23
35507;BME280;36461;52.018;21.036;2022-12-17T08:41:23;100713.03;;;-2.76;92.75
35507;BME280;36461;52.018;21.036;2022-12-17T08:44:08;100718.87;;;-2.79;92.24
35507;BME280;36461;52.018;21.036;2022-12-17T08:46:54;100717.69;;;-2.76;92.71
35507;BME280;36461;52.018;21.036;2022-12-17T08:49:39;100722.06;;;-2.70;92.73
35507;BME280;36461;52.018;21.036;2022-12-17T08:52:24;100731.21;;;-2.61;92.84
35507;BME280;36461;52.018;21.036;2022-12-17T08:55:10;100731.81;;;-2.55;92.83
35507;BME280;36461;52.018;21.036;2022-12-17T08:57:56;100737.56;;;-2.61;92.21
35507;BME280;36461;52.018;21.036;2022-12-17T09:00:44;100731.45;;;-2.67;91.82
35507;BME280;36461;52.018;21.036;2022-12-17T09:03:29;100732.17;;;-2.57;92.51
35507;BME280;36461;52.018;21.036;2022-12-17T09:06:15;100735.66;;;-2.54;92.26
35507;BME280;36461;52.018;21.036;2022-12-17T09:09:00;100739.69;;;-2.62;91.75
35507;BME280;36461;52.018;21.036;2022-12-17T09:11:45;100735.95;;;-2.59;91.84
35507;BME280;36461;52.018;21.036;2022-12-17T09:14:30;100739.48;;;-2.54;92.16
35507;BME280;36461;52.018;21.036;2022-12-17T09:17:15;100747.45;;;-2.56;91.50
35507;BME280;36461;52.018;21.036;2022-12-17T09:20:00;100752.81;;;-2.61;91.23
35507;BME280;36461;52.018;21.036;2022-12-17T09:22:45;100755.28;;;-2.64;91.94
35507;BME280;36461;52.018;21.036;2022-12-17T09:25:30;100755.52;;;-2.71;91.61
35507;BME280;36461;52.018;21.036;2022-12-17T09:28:16;100761.91;;;-2.69;92.29
35507;BME280;36461;52.018;21.036;2022-12-17T09:31:01;100767.69;;;-2.75;92.32
35507;BME280;36461;52.018;21.036;2022-12-17T09:33:46;100770.55;;;-2.78;92.65
35507;BME280;36461;52.018;21.036;2022-12-17T09:36:31;100771.59;;;-2.86;92.16
35507;BME280;36461;52.018;21.036;2022-12-17T09:39:16;100766.85;;;-2.90;92.62
35507;BME280;36461;52.018;21.036;2022-12-17T09:45:34;100767.19;;;-2.77;92.88
35507;BME280;36461;52.018;21.036;2022-12-17T09:51:38;100769.34;;;-2.61;92.29
35507;BME280;36461;52.018;21.036;2022-12-17T09:57:27;100762.50;;;-2.47;91.80
35507;BME280;36461;52.018;21.036;2022-12-17T10:00:27;100762.88;;;-2.49;92.20
35507;BME280;36461;52.018;21.036;2022-12-17T10:03:20;100771.58;;;-2.41;91.95
35507;BME280;36461;52.018;21.036;2022-12-17T10:06:11;100755.51;;;-2.40;92.15
35507;BME280;36461;52.018;21.036;2022-12-17T10:09:13;100759.36;;;-2.39;92.29
35507;BME280;36461;52.018;21.036;2022-12-17T10:12:15;100765.64;;;-2.42;91.66
35507;BME280;36461;52.018;21.036;2022-12-17T10:15:02;100766.11;;;-2.39;91.93
35507;BME280;36461;52.018;21.036;2022-12-17T10:17:48;100782.34;;;-2.50;91.22
35507;BME280;36461;52.018;21.036;2022-12-17T10:20:49;100801.37;;;-2.51;93.11
35507;BME280;36461;52.018;21.036;2022-12-17T10:23:34;100804.45;;;-2.47;93.88
35507;BME280;36461;52.018;21.036;2022-12-17T10:26:22;100802.50;;;-2.42;94.11
35507;BME280;36461;52.018;21.036;2022-12-17T10:29:12;100804.59;;;-2.43;93.49
35507;BME280;36461;52.018;21.036;2022-12-17T10:31:52;100813.34;;;-2.47;93.64
35507;BME280;36461;52.018;21.036;2022-12-17T10:34:42;100812.99;;;-2.45;93.95
35507;BME280;36461;52.018;21.036;2022-12-17T10:37:33;100816.73;;;-2.48;93.92
35507;BME280;36461;52.018;21.036;2022-12-17T10:43:32;100815.15;;;-2.43;93.70
35507;BME280;36461;52.018;21.036;2022-12-17T10:46:31;100817.34;;;-2.41;93.45
35507;BME280;36461;52.018;21.036;2022-12-17T10:49:23;100817.80;;;-2.40;94.14
35507;BME280;36461;52.018;21.036;2022-12-17T10:52:27;100818.69;;;-2.38;94.72
35507;BME280;36461;52.018;21.036;2022-12-17T10:55:26;100816.84;;;-2.44;93.64
35507;BME280;36461;52.018;21.036;2022-12-17T10:58:14;100818.53;;;-2.44;93.45
35507;BME280;36461;52.018;21.036;2022-12-17T11:01:03;100814.34;;;-2.42;93.84
35507;BME280;36461;52.018;21.036;2022-12-17T11:03:55;100809.33;;;-2.39;93.63
35507;BME280;36461;52.018;21.036;2022-12-17T11:06:50;100808.52;;;-2.38;92.70
35507;BME280;36461;52.018;21.036;2022-12-17T11:09:48;100822.34;;;-2.44;92.21
35507;BME280;36461;52.018;21.036;2022-12-17T11:12:51;100825.12;;;-2.51;92.24
35507;BME280;36461;52.018;21.036;2022-12-17T11:15:49;100820.05;;;-2.51;92.85
35507;BME280;36461;52.018;21.036;2022-12-17T11:18:57;100823.94;;;-2.48;93.98
35507;BME280;36461;52.018;21.036;2022-12-17T11:22:00;100828.17;;;-2.48;94.61
35507;BME280;36461;52.018;21.036;2022-12-17T11:25:52;100830.28;;;-2.48;94.34
35507;BME280;36461;52.018;21.036;2022-12-17T11:28:04;100832.03;;;-2.61;93.46
35507;BME280;36461;52.018;21.036;2022-12-17T11:30:54;100844.73;;;-2.76;93.37
35507;BME280;36461;52.018;21.036;2022-12-17T11:33:51;100835.84;;;-2.76;93.25
35507;BME280;36461;52.018;21.036;2022-12-17T11:36:49;100840.16;;;-2.73;92.83
35507;BME280;36461;52.018;21.036;2022-12-17T11:39:39;100857.59;;;-2.71;92.12
35507;BME280;36461;52.018;21.036;2022-12-17T11:42:35;100845.70;;;-2.72;91.82
35507;BME280;36461;52.018;21.036;2022-12-17T11:48:38;100845.50;;;-2.78;91.02
35507;BME280;36461;52.018;21.036;2022-12-17T11:51:34;100866.94;;;-2.84;90.73
35507;BME280;36461;52.018;21.036;2022-12-17T11:54:41;100863.66;;;-2.95;90.37
35507;BME280;36461;52.018;21.036;2022-12-17T12:00:36;100858.33;;;-3.02;90.36
35507;BME280;36461;52.018;21.036;2022-12-17T12:07:11;100869.95;;;-2.96;90.71
35507;BME280;36461;52.018;21.036;2022-12-17T12:10:20;100880.16;;;-2.95;90.42
35507;BME280;36461;52.018;21.036;2022-12-17T12:13:32;100883.25;;;-2.91;89.99
35507;BME280;36461;52.018;21.036;2022-12-17T12:22:31;100908.28;;;-3.03;90.04
35507;BME280;36461;52.018;21.036;2022-12-17T12:31:20;100895.37;;;-3.09;90.26
35507;BME280;36461;52.018;21.036;2022-12-17T12:34:19;100901.37;;;-3.07;90.61
35507;BME280;36461;52.018;21.036;2022-12-17T12:37:12;100895.16;;;-3.02;91.07
35507;BME280;36461;52.018;21.036;2022-12-17T12:43:27;100905.44;;;-2.85;91.03
35507;BME280;36461;52.018;21.036;2022-12-17T12:46:20;100910.67;;;-2.80;91.15
35507;BME280;36461;52.018;21.036;2022-12-17T12:49:28;100912.03;;;-2.77;91.75
35507;BME280;36461;52.018;21.036;2022-12-17T12:52:23;100911.56;;;-2.78;91.68
35507;BME280;36461;52.018;21.036;2022-12-17T12:55:09;100911.56;;;-2.78;91.84
35507;BME280;36461;52.018;21.036;2022-12-17T12:58:19;100911.18;;;-2.78;91.58
35507;BME280;36461;52.018;21.036;2022-12-17T13:00:57;100921.38;;;-2.76;91.56
35507;BME280;36461;52.018;21.036;2022-12-17T13:06:54;100914.48;;;-2.80;90.76
35507;BME280;36461;52.018;21.036;2022-12-17T13:14:59;100915.37;;;-2.93;90.17
35507;BME280;36461;52.018;21.036;2022-12-17T13:17:57;100917.55;;;-2.91;90.04
35507;BME280;36461;52.018;21.036;2022-12-17T13:20:42;100917.12;;;-2.90;90.28
35507;BME280;36461;52.018;21.036;2022-12-17T13:25:40;100925.97;;;-2.92;89.87
35507;BME280;36461;52.018;21.036;2022-12-17T13:28:25;100929.35;;;-2.93;89.80
35507;BME280;36461;52.018;21.036;2022-12-17T13:31:01;100929.40;;;-2.91;89.81
35507;BME280;36461;52.018;21.036;2022-12-17T13:39:04;100929.35;;;-2.93;89.61
35507;BME280;36461;52.018;21.036;2022-12-17T13:41:33;100935.92;;;-2.99;89.71
35507;BME280;36461;52.018;21.036;2022-12-17T13:44:16;100937.88;;;-3.04;89.45
35507;BME280;36461;52.018;21.036;2022-12-17T13:46:46;100943.88;;;-3.14;89.10
35507;BME280;36461;52.018;21.036;2022-12-17T13:49:23;100953.65;;;-3.14;89.63
35507;BME280;36461;52.018;21.036;2022-12-17T13:52:18;100955.67;;;-3.16;89.28
35507;BME280;36461;52.018;21.036;2022-12-17T13:54:44;100950.69;;;-3.13;89.75
35507;BME280;36461;52.018;21.036;2022-12-17T13:57:20;100955.05;;;-3.09;89.88
35507;BME280;36461;52.018;21.036;2022-12-17T13:59:54;100951.80;;;-3.05;89.85
35507;BME280;36461;52.018;21.036;2022-12-17T14:02:24;100957.59;;;-3.09;89.49
35507;BME280;36461;52.018;21.036;2022-12-17T14:04:55;100960.05;;;-3.12;89.33
35507;BME280;36461;52.018;21.036;2022-12-17T14:07:25;100968.58;;;-3.23;88.81
35507;BME280;36461;52.018;21.036;2022-12-17T14:09:53;100961.83;;;-3.35;88.57
35507;BME280;36461;52.018;21.036;2022-12-17T14:12:23;100978.86;;;-3.44;88.61
35507;BME280;36461;52.018;21.036;2022-12-17T14:15:05;100974.07;;;-3.48;88.89
35507;BME280;36461;52.018;21.036;2022-12-17T14:17:37;100987.55;;;-3.50;88.34
35507;BME280;36461;52.018;21.036;2022-12-17T14:22:49;100995.97;;;-3.63;88.33
35507;BME280;36461;52.018;21.036;2022-12-17T14:25:23;100999.22;;;-3.67;88.44
35507;BME280;36461;52.018;21.036;2022-12-17T14:28:03;100998.46;;;-3.64;88.86
35507;BME280;36461;52.018;21.036;2022-12-17T14:30:37;101010.34;;;-3.63;88.69
35507;BME280;36461;52.018;21.036;2022-12-17T14:33:29;101016.69;;;-3.63;88.78
35507;BME280;36461;52.018;21.036;2022-12-17T14:36:06;101022.47;;;-3.67;88.14
35507;BME280;36461;52.018;21.036;2022-12-17T14:38:36;101017.73;;;-3.69;88.71
35507;BME280;36461;52.018;21.036;2022-12-17T14:41:11;101020.73;;;-3.68;88.98
35507;BME280;36461;52.018;21.036;2022-12-17T14:43:59;101024.64;;;-3.65;88.72
35507;BME280;36461;52.018;21.036;2022-12-17T14:46:28;101022.28;;;-3.61;89.21
35507;BME280;36461;52.018;21.036;2022-12-17T14:48:56;101031.40;;;-3.66;88.79
35507;BME280;36461;52.018;21.036;2022-12-17T14:51:35;101034.88;;;-3.64;89.08
35507;BME280;36461;52.018;21.036;2022-12-17T14:54:26;101034.79;;;-3.65;88.91
35507;BME280;36461;52.018;21.036;2022-12-17T14:56:58;101044.66;;;-3.62;89.12
35507;BME280;36461;52.018;21.036;2022-12-17T14:59:36;101047.89;;;-3.66;89.20
35507;BME280;36461;52.018;21.036;2022-12-17T15:04:54;101066.59;;;-3.64;89.38
35507;BME280;36461;52.018;21.036;2022-12-17T15:07:26;101065.55;;;-3.69;88.78
35507;BME280;36461;52.018;21.036;2022-12-17T15:09:55;101063.34;;;-3.71;88.76
35507;BME280;36461;52.018;21.036;2022-12-17T15:12:23;101078.47;;;-3.74;88.79
35507;BME280;36461;52.018;21.036;2022-12-17T15:14:51;101078.23;;;-3.69;89.02
35507;BME280;36461;52.018;21.036;2022-12-17T15:17:17;101078.23;;;-3.69;88.83
35507;BME280;36461;52.018;21.036;2022-12-17T15:19:44;101078.52;;;-3.73;88.52
35507;BME280;36461;52.018;21.036;2022-12-17T15:22:15;101079.49;;;-3.80;88.44
35507;BME280;36461;52.018;21.036;2022-12-17T15:24:43;101077.09;;;-3.77;89.04
35507;BME280;36461;52.018;21.036;2022-12-17T15:27:16;101077.14;;;-3.76;88.94
35507;BME280;36461;52.018;21.036;2022-12-17T15:29:43;101082.91;;;-3.80;88.84